sensor_id;sensor_type;location;lat;lon;timestamp;pressure;altitude;pressure_sealevel;temperature;humidity
47716;BME280;33476;50.984;3.538;2024-03-02T00:00:01;99746.88;;;9.07;71.68
47716;BME280;33476;50.984;3.538;2024-03-02T00:02:39;99757.88;;;9.12;71.96
47716;BME280;33476;50.984;3.538;2024-03-02T00:05:05;99757.97;;;9.10;71.57
47716;BME280;33476;50.984;3.538;2024-03-02T00:07:30;99767.50;;;9.10;71.80
47716;BME280;33476;50.984;3.538;2024-03-02T00:09:56;99768.72;;;9.04;71.70
47716;BME280;33476;50.984;3.538;2024-03-02T00:12:22;99772.91;;;9.07;71.94
47716;BME280;33476;50.984;3.538;2024-03-02T00:14:47;99779.16;;;9.04;72.05
47716;BME280;33476;50.984;3.538;2024-03-02T00:17:24;99778.47;;;9.00;71.97
47716;BME280;33476;50.984;3.538;2024-03-02T00:19:50;99786.88;;;9.06;71.83
47716;BME280;33476;50.984;3.538;2024-03-02T00:22:16;99793.09;;;9.03;71.72
47716;BME280;33476;50.984;3.538;2024-03-02T00:24:41;99790.56;;;9.01;72.06
47716;BME280;33476;50.984;3.538;2024-03-02T00:27:07;99780.13;;;9.01;71.62
47716;BME280;33476;50.984;3.538;2024-03-02T00:29:32;99797.28;;;9.06;71.62
47716;BME280;33476;50.984;3.538;2024-03-02T00:32:00;99778.41;;;9.02;71.85
47716;BME280;33476;50.984;3.538;2024-03-02T00:34:26;99789.81;;;8.99;71.56
47716;BME280;33476;50.984;3.538;2024-03-02T00:36:51;99781.25;;;8.97;71.64
47716;BME280;33476;50.984;3.538;2024-03-02T00:39:17;99787.56;;;8.93;71.78
47716;BME280;33476;50.984;3.538;2024-03-02T00:41:43;99796.25;;;8.94;71.50
47716;BME280;33476;50.984;3.538;2024-03-02T00:44:12;99787.50;;;8.95;71.33
47716;BME280;33476;50.984;3.538;2024-03-02T00:46:39;99779.41;;;8.99;71.42
47716;BME280;33476;50.984;3.538;2024-03-02T00:49:22;99783.88;;;8.97;71.47
47716;BME280;33476;50.984;3.538;2024-03-02T00:51:49;99787.22;;;8.99;71.28
47716;BME280;33476;50.984;3.538;2024-03-02T00:54:15;99785.63;;;8.97;71.07
47716;BME280;33476;50.984;3.538;2024-03-02T00:56:44;99791.44;;;9.02;71.34
47716;BME280;33476;50.984;3.538;2024-03-02T00:59:10;99793.16;;;9.01;70.91
47716;BME280;33476;50.984;3.538;2024-03-02T01:01:36;99789.06;;;8.97;71.36
47716;BME280;33476;50.984;3.538;2024-03-02T01:04:02;99791.78;;;8.96;70.99
47716;BME280;33476;50.984;3.538;2024-03-02T01:06:27;99792.59;;;8.96;71.06
47716;BME280;33476;50.984;3.538;2024-03-02T01:08:53;99795.22;;;8.96;70.99
47716;BME280;33476;50.984;3.538;2024-03-02T01:11:18;99791.28;;;8.89;70.95
47716;BME280;33476;50.984;3.538;2024-03-02T01:13:44;99793.88;;;8.89;70.94
47716;BME280;33476;50.984;3.538;2024-03-02T01:16:10;99800.03;;;8.88;70.96
47716;BME280;33476;50.984;3.538;2024-03-02T01:18:35;99792.47;;;8.84;71.18
47716;BME280;33476;50.984;3.538;2024-03-02T01:21:00;99798.59;;;8.83;70.57
47716;BME280;33476;50.984;3.538;2024-03-02T01:23:26;99791.47;;;8.86;70.80
47716;BME280;33476;50.984;3.538;2024-03-02T01:25:52;99801.69;;;8.89;70.69
47716;BME280;33476;50.984;3.538;2024-03-02T01:28:18;99800.19;;;8.85;70.41
47716;BME280;33476;50.984;3.538;2024-03-02T01:30:47;99810.03;;;8.80;70.88
47716;BME280;33476;50.984;3.538;2024-03-02T01:33:12;99805.00;;;8.77;70.89
47716;BME280;33476;50.984;3.538;2024-03-02T01:35:38;99802.47;;;8.76;70.52
47716;BME280;33476;50.984;3.538;2024-03-02T01:38:04;99810.13;;;8.79;70.71
47716;BME280;33476;50.984;3.538;2024-03-02T01:40:31;99810.97;;;8.79;70.46
47716;BME280;33476;50.984;3.538;2024-03-02T01:42:57;99806.59;;;8.80;70.30
47716;BME280;33476;50.984;3.538;2024-03-02T01:45:25;99808.75;;;8.87;70.22
47716;BME280;33476;50.984;3.538;2024-03-02T01:47:50;99813.59;;;8.93;69.79
47716;BME280;33476;50.984;3.538;2024-03-02T01:50:24;99804.38;;;8.88;69.87
47716;BME280;33476;50.984;3.538;2024-03-02T01:52:50;99812.69;;;8.94;69.83
47716;BME280;33476;50.984;3.538;2024-03-02T01:55:15;99805.78;;;8.93;69.92
47716;BME280;33476;50.984;3.538;2024-03-02T01:57:41;99806.66;;;8.94;69.76
47716;BME280;33476;50.984;3.538;2024-03-02T02:00:07;99812.75;;;8.93;69.52
47716;BME280;33476;50.984;3.538;2024-03-02T02:02:32;99813.88;;;8.89;69.61
47716;BME280;33476;50.984;3.538;2024-03-02T02:04:58;99813.19;;;8.85;69.61
47716;BME280;33476;50.984;3.538;2024-03-02T02:07:23;99814.22;;;8.83;69.95
47716;BME280;33476;50.984;3.538;2024-03-02T02:09:48;99806.75;;;8.77;70.22
47716;BME280;33476;50.984;3.538;2024-03-02T02:12:14;99806.75;;;8.77;70.27
47716;BME280;33476;50.984;3.538;2024-03-02T02:14:47;99811.22;;;8.75;69.74
47716;BME280;33476;50.984;3.538;2024-03-02T02:17:12;99811.22;;;8.75;69.96
47716;BME280;33476;50.984;3.538;2024-03-02T02:19:40;99813.81;;;8.75;70.36
47716;BME280;33476;50.984;3.538;2024-03-02T02:22:05;99822.56;;;8.73;70.32
47716;BME280;33476;50.984;3.538;2024-03-02T02:24:31;99807.03;;;8.72;70.31
47716;BME280;33476;50.984;3.538;2024-03-02T02:26:56;99810.47;;;8.72;70.25
47716;BME280;33476;50.984;3.538;2024-03-02T02:29:21;99806.19;;;8.71;70.05
47716;BME280;33476;50.984;3.538;2024-03-02T02:31:47;99802.06;;;8.67;70.01
47716;BME280;33476;50.984;3.538;2024-03-02T02:34:14;99803.81;;;8.67;70.22
47716;BME280;33476;50.984;3.538;2024-03-02T02:36:39;99810.78;;;8.66;69.92
47716;BME280;33476;50.984;3.538;2024-03-02T02:39:07;99806.63;;;8.64;70.46
47716;BME280;33476;50.984;3.538;2024-03-02T02:41:35;99801.13;;;8.68;69.65
47716;BME280;33476;50.984;3.538;2024-03-02T02:44:01;99804.09;;;8.62;69.83
47716;BME280;33476;50.984;3.538;2024-03-02T02:46:26;99803.00;;;8.66;70.42
47716;BME280;33476;50.984;3.538;2024-03-02T02:48:51;99804.41;;;8.72;69.76
47716;BME280;33476;50.984;3.538;2024-03-02T02:51:18;99806.19;;;8.71;70.20
47716;BME280;33476;50.984;3.538;2024-03-02T02:53:43;99795.50;;;8.76;69.83
47716;BME280;33476;50.984;3.538;2024-03-02T02:56:09;99797.94;;;8.79;69.88
47716;BME280;33476;50.984;3.538;2024-03-02T02:58:34;99798.19;;;8.75;69.66
47716;BME280;33476;50.984;3.538;2024-03-02T03:01:00;99794.75;;;8.74;70.00
47716;BME280;33476;50.984;3.538;2024-03-02T03:03:26;99801.63;;;8.75;69.92
47716;BME280;33476;50.984;3.538;2024-03-02T03:05:51;99793.81;;;8.75;69.34
47716;BME280;33476;50.984;3.538;2024-03-02T03:08:16;99793.06;;;8.73;69.82
47716;BME280;33476;50.984;3.538;2024-03-02T03:10:42;99793.91;;;8.73;69.68
47716;BME280;33476;50.984;3.538;2024-03-02T03:13:08;99789.72;;;8.71;70.05
47716;BME280;33476;50.984;3.538;2024-03-02T03:15:37;99794.09;;;8.70;69.82
47716;BME280;33476;50.984;3.538;2024-03-02T03:18:03;99788.22;;;8.67;70.01
47716;BME280;33476;50.984;3.538;2024-03-02T03:20:33;99786.81;;;8.61;70.09
47716;BME280;33476;50.984;3.538;2024-03-02T03:22:59;99784.28;;;8.60;69.63
47716;BME280;33476;50.984;3.538;2024-03-02T03:25:24;99784.34;;;8.58;69.89
47716;BME280;33476;50.984;3.538;2024-03-02T03:27:49;99781.94;;;8.55;69.84
47716;BME280;33476;50.984;3.538;2024-03-02T03:30:17;99785.38;;;8.56;69.76
47716;BME280;33476;50.984;3.538;2024-03-02T03:32:42;99776.72;;;8.55;69.44
47716;BME280;33476;50.984;3.538;2024-03-02T03:35:08;99777.66;;;8.54;69.56
47716;BME280;33476;50.984;3.538;2024-03-02T03:37:34;99779.34;;;8.55;70.09
47716;BME280;33476;50.984;3.538;2024-03-02T03:40:00;99774.13;;;8.55;69.33
47716;BME280;33476;50.984;3.538;2024-03-02T03:42:26;99777.34;;;8.44;69.96
47716;BME280;33476;50.984;3.538;2024-03-02T03:44:51;99776.66;;;8.41;69.74
47716;BME280;33476;50.984;3.538;2024-03-02T03:47:17;99773.91;;;8.44;69.67
47716;BME280;33476;50.984;3.538;2024-03-02T03:49:42;99777.00;;;8.35;69.62
47716;BME280;33476;50.984;3.538;2024-03-02T03:52:08;99775.28;;;8.34;69.95
47716;BME280;33476;50.984;3.538;2024-03-02T03:54:33;99779.75;;;8.32;69.73
47716;BME280;33476;50.984;3.538;2024-03-02T03:56:58;99774.72;;;8.29;69.71
47716;BME280;33476;50.984;3.538;2024-03-02T03:59:24;99779.84;;;8.30;70.03
47716;BME280;33476;50.984;3.538;2024-03-02T04:01:49;99787.63;;;8.30;69.89
47716;BME280;33476;50.984;3.538;2024-03-02T04:04:14;99790.00;;;8.35;70.03
47716;BME280;33476;50.984;3.538;2024-03-02T04:06:40;99786.41;;;8.37;69.33
47716;BME280;33476;50.984;3.538;2024-03-02T04:09:05;99789.13;;;8.34;69.71
47716;BME280;33476;50.984;3.538;2024-03-02T04:11:30;99796.94;;;8.34;69.74
47716;BME280;33476;50.984;3.538;2024-03-02T04:13:56;99805.66;;;8.33;69.42
47716;BME280;33476;50.984;3.538;2024-03-02T04:16:21;99809.91;;;8.36;69.53
47716;BME280;33476;50.984;3.538;2024-03-02T04:18:46;99807.34;;;8.34;69.67
47716;BME280;33476;50.984;3.538;2024-03-02T04:21:12;99816.00;;;8.35;69.35
47716;BME280;33476;50.984;3.538;2024-03-02T04:23:37;99816.34;;;8.29;69.65
47716;BME280;33476;50.984;3.538;2024-03-02T04:26:03;99813.13;;;8.24;69.50
47716;BME280;33476;50.984;3.538;2024-03-02T04:28:29;99815.75;;;8.24;69.82
47716;BME280;33476;50.984;3.538;2024-03-02T04:30:54;99819.88;;;8.28;69.70
47716;BME280;33476;50.984;3.538;2024-03-02T04:33:20;99822.19;;;8.32;68.92
47716;BME280;33476;50.984;3.538;2024-03-02T04:35:45;99826.28;;;8.38;69.39
47716;BME280;33476;50.984;3.538;2024-03-02T04:38:11;99825.16;;;8.42;69.15
47716;BME280;33476;50.984;3.538;2024-03-02T04:40:37;99824.50;;;8.38;68.86
47716;BME280;33476;50.984;3.538;2024-03-02T04:43:02;99835.94;;;8.36;69.36
47716;BME280;33476;50.984;3.538;2024-03-02T04:45:28;99834.16;;;8.36;69.37
47716;BME280;33476;50.984;3.538;2024-03-02T04:47:54;99830.75;;;8.34;69.07
47716;BME280;33476;50.984;3.538;2024-03-02T04:50:19;99831.78;;;8.32;69.54
47716;BME280;33476;50.984;3.538;2024-03-02T04:52:45;99836.03;;;8.33;68.89
47716;BME280;33476;50.984;3.538;2024-03-02T04:55:10;99842.88;;;8.35;69.40
47716;BME280;33476;50.984;3.538;2024-03-02T04:57:50;99848.06;;;8.35;69.32
47716;BME280;33476;50.984;3.538;2024-03-02T05:00:16;99840.31;;;8.34;69.09
47716;BME280;33476;50.984;3.538;2024-03-02T05:02:42;99838.44;;;8.37;69.00
47716;BME280;33476;50.984;3.538;2024-03-02T05:05:07;99839.28;;;8.38;68.62
47716;BME280;33476;50.984;3.538;2024-03-02T05:07:33;99846.34;;;8.36;69.24
47716;BME280;33476;50.984;3.538;2024-03-02T05:09:58;99849.78;;;8.36;69.36
47716;BME280;33476;50.984;3.538;2024-03-02T05:12:24;99852.38;;;8.36;69.24
47716;BME280;33476;50.984;3.538;2024-03-02T05:15:07;99854.34;;;8.31;69.35
47716;BME280;33476;50.984;3.538;2024-03-02T05:17:33;99851.00;;;8.29;69.27
47716;BME280;33476;50.984;3.538;2024-03-02T05:19:58;99846.34;;;8.36;68.79
47716;BME280;33476;50.984;3.538;2024-03-02T05:22:24;99853.34;;;8.34;69.29
47716;BME280;33476;50.984;3.538;2024-03-02T05:24:49;99856.34;;;8.26;69.17
47716;BME280;33476;50.984;3.538;2024-03-02T05:27:15;99860.03;;;8.22;69.23
47716;BME280;33476;50.984;3.538;2024-03-02T05:29:40;99858.59;;;8.16;69.87
47716;BME280;33476;50.984;3.538;2024-03-02T05:32:06;99858.09;;;8.10;69.88
47716;BME280;33476;50.984;3.538;2024-03-02T05:34:31;99858.25;;;8.07;69.78
47716;BME280;33476;50.984;3.538;2024-03-02T05:36:58;99858.16;;;8.08;69.42
47716;BME280;33476;50.984;3.538;2024-03-02T05:39:23;99852.66;;;8.14;69.91
47716;BME280;33476;50.984;3.538;2024-03-02T05:41:48;99850.88;;;8.15;70.13
47716;BME280;33476;50.984;3.538;2024-03-02T05:44:14;99854.00;;;8.22;69.26
47716;BME280;33476;50.984;3.538;2024-03-02T05:46:40;99857.69;;;8.17;69.78
47716;BME280;33476;50.984;3.538;2024-03-02T05:49:06;99856.84;;;8.17;69.47
47716;BME280;33476;50.984;3.538;2024-03-02T05:51:33;99855.66;;;8.07;69.33
47716;BME280;33476;50.984;3.538;2024-03-02T05:53:58;99853.16;;;8.05;69.53
47716;BME280;33476;50.984;3.538;2024-03-02T05:56:23;99857.34;;;8.08;69.37
47716;BME280;33476;50.984;3.538;2024-03-02T05:58:49;99846.28;;;8.04;69.92
47716;BME280;33476;50.984;3.538;2024-03-02T06:01:33;99854.06;;;8.04;69.72
47716;BME280;33476;50.984;3.538;2024-03-02T06:03:58;99858.34;;;8.05;69.92
47716;BME280;33476;50.984;3.538;2024-03-02T06:06:24;99865.31;;;8.05;69.18
47716;BME280;33476;50.984;3.538;2024-03-02T06:08:49;99864.78;;;7.98;70.14
47716;BME280;33476;50.984;3.538;2024-03-02T06:11:15;99865.44;;;8.02;69.68
47716;BME280;33476;50.984;3.538;2024-03-02T06:13:41;99868.75;;;8.05;69.98
47716;BME280;33476;50.984;3.538;2024-03-02T06:16:06;99875.78;;;8.03;69.47
47716;BME280;33476;50.984;3.538;2024-03-02T06:18:32;99884.19;;;8.08;69.61
47716;BME280;33476;50.984;3.538;2024-03-02T06:20:57;99875.94;;;8.00;69.83
47716;BME280;33476;50.984;3.538;2024-03-02T06:23:22;99874.88;;;8.04;69.77
47716;BME280;33476;50.984;3.538;2024-03-02T06:25:48;99873.25;;;8.02;69.71
47716;BME280;33476;50.984;3.538;2024-03-02T06:28:13;99862.94;;;8.00;69.87
47716;BME280;33476;50.984;3.538;2024-03-02T06:30:41;99870.38;;;7.91;69.77
47716;BME280;33476;50.984;3.538;2024-03-02T06:33:07;99864.66;;;7.84;70.30
47716;BME280;33476;50.984;3.538;2024-03-02T06:35:32;99857.19;;;7.78;70.26
47716;BME280;33476;50.984;3.538;2024-03-02T06:37:58;99874.78;;;7.73;70.94
47716;BME280;33476;50.984;3.538;2024-03-02T06:40:23;99880.50;;;7.79;69.79
47716;BME280;33476;50.984;3.538;2024-03-02T06:42:48;99875.31;;;7.79;69.88
47716;BME280;33476;50.984;3.538;2024-03-02T06:45:14;99881.34;;;7.80;69.90
47716;BME280;33476;50.984;3.538;2024-03-02T06:47:39;99885.53;;;7.82;70.45
47716;BME280;33476;50.984;3.538;2024-03-02T06:50:05;99891.56;;;7.83;69.74
47716;BME280;33476;50.984;3.538;2024-03-02T06:52:32;99886.38;;;7.83;70.05
47716;BME280;33476;50.984;3.538;2024-03-02T06:54:57;99883.03;;;7.81;70.63
47716;BME280;33476;50.984;3.538;2024-03-02T06:57:22;99882.19;;;7.80;70.28
47716;BME280;33476;50.984;3.538;2024-03-02T06:59:49;99875.97;;;7.83;70.46
47716;BME280;33476;50.984;3.538;2024-03-02T07:02:16;99883.38;;;7.91;69.99
47716;BME280;33476;50.984;3.538;2024-03-02T07:04:42;99877.13;;;7.95;69.82
47716;BME280;33476;50.984;3.538;2024-03-02T07:07:07;99879.28;;;8.02;70.05
47716;BME280;33476;50.984;3.538;2024-03-02T07:09:32;99870.59;;;8.03;69.83
47716;BME280;33476;50.984;3.538;2024-03-02T07:11:58;99875.44;;;8.09;69.91
47716;BME280;33476;50.984;3.538;2024-03-02T07:14:23;99875.44;;;8.09;70.11
47716;BME280;33476;50.984;3.538;2024-03-02T07:17:08;99875.22;;;8.14;69.84
47716;BME280;33476;50.984;3.538;2024-03-02T07:19:35;99871.13;;;8.26;70.00
47716;BME280;33476;50.984;3.538;2024-03-02T07:22:00;99877.84;;;8.30;69.55
47716;BME280;33476;50.984;3.538;2024-03-02T07:24:25;99872.28;;;8.37;69.83
47716;BME280;33476;50.984;3.538;2024-03-02T07:26:51;99871.91;;;8.43;69.60
47716;BME280;33476;50.984;3.538;2024-03-02T07:29:17;99881.34;;;8.46;69.60
47716;BME280;33476;50.984;3.538;2024-03-02T07:31:43;99872.53;;;8.49;69.49
47716;BME280;33476;50.984;3.538;2024-03-02T07:34:09;99869.91;;;8.49;69.31
47716;BME280;33476;50.984;3.538;2024-03-02T07:36:35;99861.19;;;8.50;69.16
47716;BME280;33476;50.984;3.538;2024-03-02T07:39:01;99860.94;;;8.54;69.09
47716;BME280;33476;50.984;3.538;2024-03-02T07:41:27;99864.94;;;8.60;69.07
47716;BME280;33476;50.984;3.538;2024-03-02T07:43:52;99861.19;;;8.65;68.71
47716;BME280;33476;50.984;3.538;2024-03-02T07:46:17;99864.38;;;8.70;68.70
47716;BME280;33476;50.984;3.538;2024-03-02T07:48:43;99863.03;;;8.79;68.78
47716;BME280;33476;50.984;3.538;2024-03-02T07:51:08;99855.22;;;8.79;68.78
47716;BME280;33476;50.984;3.538;2024-03-02T07:53:33;99864.19;;;8.89;68.85
47716;BME280;33476;50.984;3.538;2024-03-02T07:55:59;99865.88;;;8.90;68.37
47716;BME280;33476;50.984;3.538;2024-03-02T07:58:27;99859.63;;;8.93;68.10
47716;BME280;33476;50.984;3.538;2024-03-02T08:00:53;99860.41;;;8.95;68.29
47716;BME280;33476;50.984;3.538;2024-03-02T08:03:18;99857.28;;;9.04;68.50
47716;BME280;33476;50.984;3.538;2024-03-02T08:05:44;99872.59;;;9.24;68.11
47716;BME280;33476;50.984;3.538;2024-03-02T08:08:09;99874.31;;;9.40;67.76
47716;BME280;33476;50.984;3.538;2024-03-02T08:10:35;99869.59;;;9.46;67.26
47716;BME280;33476;50.984;3.538;2024-03-02T08:13:01;99869.50;;;9.48;67.36
47716;BME280;33476;50.984;3.538;2024-03-02T08:15:26;99873.03;;;9.47;67.20
47716;BME280;33476;50.984;3.538;2024-03-02T08:17:52;99874.72;;;9.48;67.31
47716;BME280;33476;50.984;3.538;2024-03-02T08:20:17;99885.88;;;9.50;67.35
47716;BME280;33476;50.984;3.538;2024-03-02T08:22:43;99884.78;;;9.54;67.01
47716;BME280;33476;50.984;3.538;2024-03-02T08:25:08;99884.66;;;9.71;66.86
47716;BME280;33476;50.984;3.538;2024-03-02T08:27:34;99884.47;;;9.89;66.47
47716;BME280;33476;50.984;3.538;2024-03-02T08:30:00;99883.72;;;10.01;66.16
47716;BME280;33476;50.984;3.538;2024-03-02T08:32:25;99885.03;;;10.08;65.77
47716;BME280;33476;50.984;3.538;2024-03-02T08:34:51;99877.31;;;10.21;65.56
47716;BME280;33476;50.984;3.538;2024-03-02T08:37:16;99892.13;;;10.20;65.31
47716;BME280;33476;50.984;3.538;2024-03-02T08:39:41;99883.38;;;10.21;65.27
47716;BME280;33476;50.984;3.538;2024-03-02T08:42:07;99883.56;;;10.18;65.36
47716;BME280;33476;50.984;3.538;2024-03-02T08:44:33;99882.06;;;10.14;65.48
47716;BME280;33476;50.984;3.538;2024-03-02T08:46:59;99871.56;;;10.01;65.54
47716;BME280;33476;50.984;3.538;2024-03-02T08:49:24;99876.47;;;9.92;65.62
47716;BME280;33476;50.984;3.538;2024-03-02T08:51:49;99881.59;;;9.93;65.73
47716;BME280;33476;50.984;3.538;2024-03-02T08:54:23;99875.25;;;9.97;65.79
47716;BME280;33476;50.984;3.538;2024-03-02T08:56:49;99880.22;;;10.02;65.67
47716;BME280;33476;50.984;3.538;2024-03-02T08:59:15;99890.53;;;10.03;65.41
47716;BME280;33476;50.984;3.538;2024-03-02T09:01:40;99895.75;;;10.03;65.54
47716;BME280;33476;50.984;3.538;2024-03-02T09:04:07;99884.78;;;10.12;65.47
47716;BME280;33476;50.984;3.538;2024-03-02T09:06:34;99885.81;;;10.10;65.48
47716;BME280;33476;50.984;3.538;2024-03-02T09:08:59;99877.47;;;10.18;65.08
47716;BME280;33476;50.984;3.538;2024-03-02T09:11:24;99879.84;;;10.36;64.91
47716;BME280;33476;50.984;3.538;2024-03-02T09:13:50;99889.34;;;10.37;64.93
47716;BME280;33476;50.984;3.538;2024-03-02T09:16:16;99892.69;;;10.39;64.95
47716;BME280;33476;50.984;3.538;2024-03-02T09:18:41;99887.84;;;10.33;65.20
47716;BME280;33476;50.984;3.538;2024-03-02T09:21:07;99889.56;;;10.34;65.12
47716;BME280;33476;50.984;3.538;2024-03-02T09:23:33;99878.91;;;10.37;65.08
47716;BME280;33476;50.984;3.538;2024-03-02T09:25:59;99886.38;;;10.44;65.10
47716;BME280;33476;50.984;3.538;2024-03-02T09:28:24;99884.03;;;10.53;64.94
47716;BME280;33476;50.984;3.538;2024-03-02T09:30:49;99874.38;;;10.68;64.88
47716;BME280;33476;50.984;3.538;2024-03-02T09:33:15;99873.09;;;10.88;64.32
47716;BME280;33476;50.984;3.538;2024-03-02T09:35:40;99862.63;;;11.15;63.57
47716;BME280;33476;50.984;3.538;2024-03-02T09:38:05;99872.41;;;11.38;63.54
47716;BME280;33476;50.984;3.538;2024-03-02T09:40:31;99854.69;;;11.69;62.87
47716;BME280;33476;50.984;3.538;2024-03-02T09:42:57;99861.81;;;12.05;62.30
47716;BME280;33476;50.984;3.538;2024-03-02T09:45:24;99859.16;;;12.43;61.51
47716;BME280;33476;50.984;3.538;2024-03-02T09:47:50;99851.22;;;12.69;61.01
47716;BME280;33476;50.984;3.538;2024-03-02T09:50:15;99848.31;;;12.84;60.32
47716;BME280;33476;50.984;3.538;2024-03-02T09:52:48;99865.03;;;12.71;60.45
47716;BME280;33476;50.984;3.538;2024-03-02T09:55:13;99860.13;;;12.66;60.57
47716;BME280;33476;50.984;3.538;2024-03-02T09:57:41;99861.34;;;12.73;60.63
47716;BME280;33476;50.984;3.538;2024-03-02T10:00:08;99850.66;;;12.76;60.37
47716;BME280;33476;50.984;3.538;2024-03-02T10:02:33;99855.91;;;12.76;60.25
47716;BME280;33476;50.984;3.538;2024-03-02T10:04:59;99861.41;;;13.08;59.80
47716;BME280;33476;50.984;3.538;2024-03-02T10:07:24;99860.91;;;13.27;59.03
47716;BME280;33476;50.984;3.538;2024-03-02T10:09:49;99859.22;;;13.50;58.49
47716;BME280;33476;50.984;3.538;2024-03-02T10:12:17;99856.47;;;13.52;58.32
47716;BME280;33476;50.984;3.538;2024-03-02T10:14:43;99839.19;;;13.49;57.95
47716;BME280;33476;50.984;3.538;2024-03-02T10:17:10;99831.91;;;13.64;57.68
47716;BME280;33476;50.984;3.538;2024-03-02T10:19:36;99844.94;;;13.76;58.02
47716;BME280;33476;50.984;3.538;2024-03-02T10:22:06;99838.00;;;13.64;57.33
47716;BME280;33476;50.984;3.538;2024-03-02T10:24:43;99850.84;;;13.45;58.12
47716;BME280;33476;50.984;3.538;2024-03-02T10:27:22;99833.28;;;13.10;58.46
47716;BME280;33476;50.984;3.538;2024-03-02T10:29:49;99839.91;;;12.92;58.93
47716;BME280;33476;50.984;3.538;2024-03-02T10:32:15;99832.69;;;12.59;58.84
47716;BME280;33476;50.984;3.538;2024-03-02T10:34:41;99826.59;;;12.34;59.46
47716;BME280;33476;50.984;3.538;2024-03-02T10:37:08;99840.84;;;12.30;59.61
47716;BME280;33476;50.984;3.538;2024-03-02T10:39:36;99829.94;;;12.24;59.62
47716;BME280;33476;50.984;3.538;2024-03-02T10:42:03;99831.34;;;12.17;60.11
47716;BME280;33476;50.984;3.538;2024-03-02T10:44:30;99825.16;;;12.18;60.06
47716;BME280;33476;50.984;3.538;2024-03-02T10:46:57;99822.31;;;12.21;59.70
47716;BME280;33476;50.984;3.538;2024-03-02T10:49:26;99822.38;;;12.32;59.77
47716;BME280;33476;50.984;3.538;2024-03-02T10:51:51;99812.47;;;12.24;59.60
47716;BME280;33476;50.984;3.538;2024-03-02T10:54:17;99824.81;;;12.22;59.91
47716;BME280;33476;50.984;3.538;2024-03-02T10:56:44;99812.69;;;12.21;59.99
47716;BME280;33476;50.984;3.538;2024-03-02T11:01:41;99816.78;;;12.13;60.31
47716;BME280;33476;50.984;3.538;2024-03-02T11:04:09;99820.97;;;12.15;60.19
47716;BME280;33476;50.984;3.538;2024-03-02T11:06:36;99821.19;;;12.12;60.36
47716;BME280;33476;50.984;3.538;2024-03-02T11:09:06;99804.78;;;11.97;60.42
47716;BME280;33476;50.984;3.538;2024-03-02T11:11:36;99804.66;;;11.99;60.68
47716;BME280;33476;50.984;3.538;2024-03-02T11:14:04;99805.06;;;12.05;60.66
47716;BME280;33476;50.984;3.538;2024-03-02T11:16:37;99807.69;;;12.05;60.41
47716;BME280;33476;50.984;3.538;2024-03-02T11:19:05;99819.81;;;12.06;60.20
47716;BME280;33476;50.984;3.538;2024-03-02T11:21:33;99827.56;;;12.08;60.42
47716;BME280;33476;50.984;3.538;2024-03-02T11:23:59;99817.50;;;12.15;59.94
47716;BME280;33476;50.984;3.538;2024-03-02T11:26:24;99820.13;;;12.15;60.18
47716;BME280;33476;50.984;3.538;2024-03-02T11:28:50;99818.56;;;12.12;60.02
47716;BME280;33476;50.984;3.538;2024-03-02T11:31:15;99823.50;;;12.17;60.37
47716;BME280;33476;50.984;3.538;2024-03-02T11:33:40;99821.25;;;12.23;60.33
47716;BME280;33476;50.984;3.538;2024-03-02T11:36:06;99817.78;;;12.35;59.97
47716;BME280;33476;50.984;3.538;2024-03-02T11:38:33;99820.41;;;12.35;59.93
47716;BME280;33476;50.984;3.538;2024-03-02T11:41:02;99831.53;;;12.26;59.97
47716;BME280;33476;50.984;3.538;2024-03-02T11:43:30;99821.50;;;12.20;60.50
47716;BME280;33476;50.984;3.538;2024-03-02T11:46:00;99819.94;;;12.18;60.96
47716;BME280;33476;50.984;3.538;2024-03-02T11:48:26;99817.91;;;12.21;61.27
47716;BME280;33476;50.984;3.538;2024-03-02T11:50:52;99817.50;;;12.27;61.43
47716;BME280;33476;50.984;3.538;2024-03-02T11:53:18;99818.75;;;12.34;61.68
47716;BME280;33476;50.984;3.538;2024-03-02T11:55:44;99805.00;;;12.31;61.74
47716;BME280;33476;50.984;3.538;2024-03-02T11:58:14;99807.84;;;12.28;61.76
47716;BME280;33476;50.984;3.538;2024-03-02T12:00:43;99803.06;;;12.22;62.09
47716;BME280;33476;50.984;3.538;2024-03-02T12:03:09;99797.63;;;12.25;61.78
47716;BME280;33476;50.984;3.538;2024-03-02T12:05:37;99797.03;;;12.32;61.89
47716;BME280;33476;50.984;3.538;2024-03-02T12:08:04;99796.72;;;12.37;62.27
47716;BME280;33476;50.984;3.538;2024-03-02T12:10:30;99794.94;;;12.37;62.05
47716;BME280;33476;50.984;3.538;2024-03-02T12:13:00;99791.50;;;12.37;62.21
47716;BME280;33476;50.984;3.538;2024-03-02T12:15:27;99784.47;;;12.37;62.31
47716;BME280;33476;50.984;3.538;2024-03-02T12:17:54;99783.88;;;12.34;62.59
47716;BME280;33476;50.984;3.538;2024-03-02T12:20:20;99786.69;;;12.31;62.71
47716;BME280;33476;50.984;3.538;2024-03-02T12:22:45;99773.84;;;12.15;62.80
47716;BME280;33476;50.984;3.538;2024-03-02T12:25:11;99775.13;;;12.09;63.56
47716;BME280;33476;50.984;3.538;2024-03-02T12:27:37;99780.97;;;12.13;63.54
47716;BME280;33476;50.984;3.538;2024-03-02T12:30:04;99769.16;;;12.07;63.59
47716;BME280;33476;50.984;3.538;2024-03-02T12:32:29;99776.56;;;12.14;63.87
47716;BME280;33476;50.984;3.538;2024-03-02T12:34:55;99771.78;;;12.07;63.83
47716;BME280;33476;50.984;3.538;2024-03-02T12:37:20;99770.31;;;12.03;64.26
47716;BME280;33476;50.984;3.538;2024-03-02T12:39:46;99761.00;;;12.12;64.05
47716;BME280;33476;50.984;3.538;2024-03-02T12:42:12;99765.44;;;12.23;64.13
47716;BME280;33476;50.984;3.538;2024-03-02T12:44:37;99761.88;;;12.24;64.35
47716;BME280;33476;50.984;3.538;2024-03-02T12:47:03;99764.84;;;12.19;64.73
47716;BME280;33476;50.984;3.538;2024-03-02T12:49:29;99759.94;;;12.15;65.12
47716;BME280;33476;50.984;3.538;2024-03-02T12:51:55;99757.19;;;12.16;65.42
47716;BME280;33476;50.984;3.538;2024-03-02T12:54:23;99760.56;;;12.18;65.42
47716;BME280;33476;50.984;3.538;2024-03-02T12:56:50;99760.56;;;12.18;65.42
47716;BME280;33476;50.984;3.538;2024-03-02T12:59:24;99750.53;;;12.12;65.75
47716;BME280;33476;50.984;3.538;2024-03-02T13:01:55;99751.78;;;12.06;65.96
47716;BME280;33476;50.984;3.538;2024-03-02T13:04:28;99761.75;;;12.01;66.21